Time;durP1;ratioP1;P1;durP2;ratioP2;P2;SDS_P1;SDS_P2;PMS_P1;PMS_P2;Temp;Humidity;BMP_temperature;BMP_pressure;BME280_temperature;BME280_humidity;BME280_pressure;Samples;Min_cycle;Max_cycle;Signal;HPM_P1;HPM_P2
2021/07/06 00:03:00;;;;;;;1.30;1.30;;;20.90;37.80;;;;;;10447547;28;20691;-68
2021/07/06 00:08:04;;;;;;;2.03;1.40;;;20.90;38.20;;;;;;10448789;28;20758;-68
2021/07/06 00:13:07;;;;;;;1.50;1.40;;;20.80;38.40;;;;;;10450554;28;20237;-68
2021/07/06 00:18:11;;;;;;;1.70;1.60;;;20.80;37.90;;;;;;10453022;28;20279;-68
2021/07/06 00:23:15;;;;;;;5.07;1.47;;;20.70;38.40;;;;;;10447373;28;20324;-68
2021/07/06 00:28:18;;;;;;;1.93;1.40;;;20.70;38.30;;;;;;10458023;28;20233;-68
2021/07/06 00:33:22;;;;;;;1.60;1.50;;;20.60;38.30;;;;;;10455066;28;20232;-68
2021/07/06 00:38:26;;;;;;;2.13;1.60;;;20.60;38.70;;;;;;10454345;28;20225;-68
2021/07/06 00:43:29;;;;;;;1.57;1.40;;;20.60;39.20;;;;;;10447609;28;20225;-68
2021/07/06 00:48:35;;;;;;;1.97;1.53;;;20.50;38.40;;;;;;10452623;28;20724;-68
2021/07/06 00:53:38;;;;;;;2.20;1.50;;;20.50;38.80;;;;;;10448184;28;20245;-68
2021/07/06 00:58:47;;;;;;;1.60;1.50;;;20.40;38.30;;;;;;10455311;28;20239;-68
2021/07/06 01:04:01;;;;;;;1.50;1.37;;;20.30;39.20;;;;;;10452086;28;20240;-68
2021/07/06 01:09:05;;;;;;;1.57;1.47;;;20.20;39.00;;;;;;10446745;28;20233;-68
2021/07/06 01:14:08;;;;;;;1.63;1.40;;;20.20;39.00;;;;;;10454609;28;20233;-68
2021/07/06 01:19:14;;;;;;;2.37;1.90;;;20.10;38.80;;;;;;10456374;28;20236;-68
2021/07/06 01:24:19;;;;;;;1.73;1.27;;;20.10;39.40;;;;;;10445684;28;20605;-68
2021/07/06 01:29:22;;;;;;;1.60;1.50;;;20.00;39.10;;;;;;10456233;28;20243;-68
2021/07/06 01:34:25;;;;;;;3.17;1.60;;;20.00;38.90;;;;;;10446931;28;20229;-68
2021/07/06 01:39:30;;;;;;;1.87;1.67;;;19.90;38.80;;;;;;10450015;28;20220;-68
2021/07/06 01:44:33;;;;;;;2.00;1.40;;;19.80;39.30;;;;;;10452768;28;20696;-68
2021/07/06 01:49:36;;;;;;;1.37;1.27;;;19.70;39.10;;;;;;10442083;28;20240;-68
2021/07/06 01:54:41;;;;;;;1.17;1.13;;;19.70;39.20;;;;;;10452434;28;20237;-68
2021/07/06 01:59:44;;;;;;;2.07;1.40;;;19.70;39.50;;;;;;10447220;28;20256;-68
2021/07/06 02:04:50;;;;;;;2.37;1.50;;;19.70;39.30;;;;;;10447497;28;20237;-68
2021/07/06 02:09:54;;;;;;;1.40;1.30;;;19.70;39.60;;;;;;10453653;28;20228;-68
2021/07/06 02:14:58;;;;;;;2.50;1.50;;;19.70;39.50;;;;;;10453116;28;20299;-68
2021/07/06 02:20:02;;;;;;;2.13;1.50;;;19.70;39.30;;;;;;10448103;28;20233;-70
2021/07/06 02:25:08;;;;;;;3.10;1.80;;;19.70;39.30;;;;;;10453567;28;20737;-68
2021/07/06 02:30:14;;;;;;;3.63;1.63;;;19.60;39.50;;;;;;10449918;28;20236;-68
2021/07/06 02:35:17;;;;;;;3.07;1.60;;;19.50;39.50;;;;;;10442981;28;20229;-68
2021/07/06 02:40:22;;;;;;;1.43;1.33;;;19.40;39.20;;;;;;10446274;28;20236;-68
2021/07/06 02:45:25;;;;;;;3.23;1.57;;;19.30;39.60;;;;;;10444835;28;20251;-68
2021/07/06 02:50:29;;;;;;;2.23;1.60;;;19.30;39.40;;;;;;10446401;28;20229;-68
2021/07/06 02:55:33;;;;;;;2.73;1.50;;;19.20;39.60;;;;;;10451447;28;20229;-68
2021/07/06 03:00:36;;;;;;;2.13;1.40;;;19.10;40.00;;;;;;10455013;28;20232;-68
2021/07/06 03:05:40;;;;;;;1.63;1.43;;;19.10;39.70;;;;;;10446755;28;20628;-68
2021/07/06 03:10:44;;;;;;;1.50;1.40;;;19.10;39.70;;;;;;10450573;28;20225;-68
2021/07/06 03:15:47;;;;;;;1.50;1.40;;;19.10;40.20;;;;;;10449788;28;20236;-68
2021/07/06 03:20:51;;;;;;;5.20;1.70;;;19.10;40.00;;;;;;10446924;28;20245;-68
2021/07/06 03:25:55;;;;;;;1.93;1.33;;;19.10;40.00;;;;;;10443913;28;20612;-68
2021/07/06 03:30:58;;;;;;;3.17;1.30;;;19.10;40.20;;;;;;10445944;28;20236;-68
2021/07/06 03:36:02;;;;;;;2.07;1.50;;;19.00;39.80;;;;;;10446186;28;20751;-69
2021/07/06 03:41:06;;;;;;;2.67;2.07;;;19.00;39.90;;;;;;10449788;28;20602;-68
2021/07/06 03:46:10;;;;;;;2.27;2.03;;;18.90;40.30;;;;;;10445326;28;20228;-68
2021/07/06 03:51:13;;;;;;;1.97;1.87;;;18.90;40.00;;;;;;10444170;28;20247;-68
2021/07/06 03:56:17;;;;;;;3.10;1.93;;;18.90;40.30;;;;;;10451971;28;20229;-68
2021/07/06 04:01:21;;;;;;;2.97;1.90;;;18.80;40.70;;;;;;10452763;28;20222;-68
2021/07/06 04:06:24;;;;;;;3.67;1.93;;;18.70;40.50;;;;;;10457339;28;20249;-68
2021/07/06 04:11:28;;;;;;;4.23;2.10;;;18.70;40.80;;;;;;10459240;28;20267;-68
2021/07/06 04:16:32;;;;;;;1.93;1.80;;;18.70;41.30;;;;;;10455364;28;20239;-68
2021/07/06 04:21:35;;;;;;;2.80;1.70;;;18.70;40.90;;;;;;10456598;28;20221;-68
2021/07/06 04:26:40;;;;;;;2.73;1.87;;;18.70;41.40;;;;;;10453103;28;20228;-69
2021/07/06 04:31:43;;;;;;;1.73;1.60;;;18.80;41.60;;;;;;10450293;28;20237;-68
2021/07/06 04:36:46;;;;;;;1.80;1.53;;;18.90;41.70;;;;;;10454493;28;20316;-68
2021/07/06 04:41:51;;;;;;;2.80;1.70;;;18.90;41.70;;;;;;10454327;28;20232;-68
2021/07/06 04:46:54;;;;;;;4.90;1.90;;;19.00;42.40;;;;;;10455511;28;20937;-68
2021/07/06 04:51:57;;;;;;;2.47;1.80;;;19.10;42.00;;;;;;10452947;28;20232;-68
2021/07/06 04:57:02;;;;;;;2.73;1.70;;;19.10;42.30;;;;;;10453969;28;20244;-68
2021/07/06 05:02:05;;;;;;;2.83;1.87;;;19.30;43.10;;;;;;10450584;28;20235;-68
2021/07/06 05:07:09;;;;;;;2.63;1.77;;;19.40;42.90;;;;;;10456781;28;20267;-68
2021/07/06 05:12:13;;;;;;;2.27;1.83;;;19.50;43.90;;;;;;10448133;28;20702;-68
2021/07/06 05:17:16;;;;;;;2.90;1.87;;;19.60;43.90;;;;;;10449542;28;20235;-68
2021/07/06 05:22:21;;;;;;;3.00;1.83;;;19.80;43.60;;;;;;10449203;28;20222;-68
2021/07/06 05:27:26;;;;;;;2.13;1.80;;;20.00;43.50;;;;;;10456364;28;20228;-68
2021/07/06 05:32:29;;;;;;;1.87;1.77;;;20.20;44.00;;;;;;10448240;28;20729;-68
2021/07/06 05:37:33;;;;;;;2.13;1.53;;;20.40;43.70;;;;;;10456304;28;20229;-68
2021/07/06 05:42:39;;;;;;;1.60;1.50;;;20.60;43.70;;;;;;10455201;28;20220;-68
2021/07/06 05:47:42;;;;;;;2.13;1.73;;;20.80;44.60;;;;;;10448456;28;20228;-68
2021/07/06 05:52:47;;;;;;;1.53;1.43;;;21.00;44.30;;;;;;10450255;28;20716;-68
2021/07/06 05:57:51;;;;;;;1.73;1.60;;;21.20;44.10;;;;;;10452022;28;20240;-68
2021/07/06 06:02:54;;;;;;;1.43;1.33;;;21.40;44.30;;;;;;10447937;28;20735;-68
2021/07/06 06:07:57;;;;;;;1.60;1.50;;;21.60;44.10;;;;;;10451773;28;20237;-68
2021/07/06 06:13:02;;;;;;;1.33;1.23;;;21.80;43.90;;;;;;10450824;28;20232;-68
2021/07/06 06:18:05;;;;;;;1.53;1.43;;;22.10;43.80;;;;;;10452916;28;20236;-68
2021/07/06 06:23:09;;;;;;;1.50;1.40;;;22.30;43.60;;;;;;10437086;28;20232;-68
2021/07/06 06:28:13;;;;;;;1.53;1.30;;;22.50;43.40;;;;;;10452210;28;20228;-68
2021/07/06 06:33:16;;;;;;;1.97;1.20;;;22.70;43.00;;;;;;10449926;28;20247;-68
2021/07/06 06:38:19;;;;;;;1.47;1.37;;;22.90;43.10;;;;;;10448757;28;20236;-68
2021/07/06 06:43:24;;;;;;;1.47;1.20;;;23.20;42.90;;;;;;10447962;28;20259;-68
2021/07/06 06:48:27;;;;;;;1.10;1.10;;;23.40;42.60;;;;;;10458104;28;20235;-68
2021/07/06 06:53:30;;;;;;;1.30;1.20;;;23.70;42.30;;;;;;10449888;28;20225;-68
2021/07/06 06:58:35;;;;;;;1.50;1.20;;;23.90;41.70;;;;;;10450680;28;20235;-68
2021/07/06 07:03:38;;;;;;;1.10;1.10;;;24.10;40.90;;;;;;10436407;28;20236;-68
2021/07/06 07:08:41;;;;;;;1.37;1.30;;;24.30;40.80;;;;;;10450939;28;20232;-68
2021/07/06 07:13:48;;;;;;;1.30;1.20;;;24.60;40.50;;;;;;10450224;28;20605;-68
2021/07/06 07:18:51;;;;;;;1.30;1.30;;;24.90;40.80;;;;;;10449150;28;20251;-68
2021/07/06 07:23:54;;;;;;;1.40;1.00;;;25.10;41.00;;;;;;10452818;28;20231;-68
2021/07/06 07:29:01;;;;;;;1.20;1.10;;;25.30;39.90;;;;;;10452838;28;20238;-68
2021/07/06 07:34:05;;;;;;;1.10;1.10;;;25.50;39.60;;;;;;10450429;28;20239;-68
2021/07/06 07:39:08;;;;;;;1.03;0.93;;;25.70;39.20;;;;;;10463556;28;20239;-68
2021/07/06 07:44:13;;;;;;;1.40;1.20;;;26.00;38.90;;;;;;10464506;28;20229;-68
2021/07/06 07:49:16;;;;;;;1.10;1.00;;;26.20;37.30;;;;;;10460579;28;20236;-68
2021/07/06 07:54:19;;;;;;;1.63;1.10;;;26.40;38.00;;;;;;10467881;28;20225;-68
2021/07/06 07:59:24;;;;;;;1.07;1.07;;;26.50;37.80;;;;;;10465592;28;20284;-68
2021/07/06 08:04:27;;;;;;;1.23;1.10;;;26.70;37.50;;;;;;10458481;28;20248;-68
2021/07/06 08:09:30;;;;;;;1.37;1.23;;;26.90;37.60;;;;;;10470202;28;20760;-68
2021/07/06 08:14:35;;;;;;;3.43;1.10;;;27.10;37.50;;;;;;10464057;28;20233;-68
2021/07/06 08:19:38;;;;;;;4.33;1.30;;;27.30;36.20;;;;;;10467372;28;20323;-68
2021/07/06 08:24:41;;;;;;;1.87;1.30;;;27.50;36.60;;;;;;10465649;28;20250;-68
2021/07/06 08:29:46;;;;;;;1.37;1.20;;;27.70;36.10;;;;;;10470353;28;20252;-68
2021/07/06 08:34:49;;;;;;;1.30;1.20;;;27.90;35.10;;;;;;10463720;28;20264;-68
2021/07/06 08:39:52;;;;;;;0.90;0.90;;;28.00;35.90;;;;;;10469313;28;20724;-68
2021/07/06 08:44:56;;;;;;;1.37;1.20;;;28.20;36.00;;;;;;10451798;28;20233;-68
2021/07/06 08:50:02;;;;;;;1.20;1.20;;;28.40;34.70;;;;;;10440339;28;20224;-68
2021/07/06 08:55:06;;;;;;;1.40;1.30;;;28.60;34.70;;;;;;10461736;28;20244;-68
2021/07/06 09:00:14;;;;;;;1.40;1.30;;;28.80;35.50;;;;;;10454882;28;20232;-68
2021/07/06 09:05:21;;;;;;;2.13;1.20;;;29.00;33.10;;;;;;10456795;28;20232;-68
2021/07/06 09:10:25;;;;;;;1.63;1.07;;;29.20;32.70;;;;;;10457889;28;20732;-68
2021/07/06 09:15:33;;;;;;;1.47;1.20;;;29.30;33.10;;;;;;10446253;28;20240;-68
2021/07/06 09:20:37;;;;;;;1.17;1.00;;;29.50;32.00;;;;;;10450973;28;20237;-68
2021/07/06 09:25:40;;;;;;;1.20;1.10;;;29.60;33.00;;;;;;10460104;28;20302;-68
2021/07/06 09:30:45;;;;;;;1.10;1.10;;;29.80;32.40;;;;;;10448030;28;20233;-68
2021/07/06 09:35:50;;;;;;;2.63;1.00;;;29.90;31.50;;;;;;10450408;28;20232;-68
2021/07/06 09:40:53;;;;;;;1.70;0.90;;;30.10;30.80;;;;;;10453985;28;20251;-68
2021/07/06 09:46:07;;;;;;;1.00;1.00;;;30.20;31.70;;;;;;10441603;28;20233;-68
2021/07/06 09:51:16;;;;;;;1.83;1.00;;;30.40;30.20;;;;;;10451230;28;20229;-68
2021/07/06 09:56:22;;;;;;;0.90;0.90;;;30.50;30.00;;;;;;10459450;28;20229;-68
2021/07/06 10:01:27;;;;;;;1.80;0.90;;;30.70;30.00;;;;;;10448086;28;20248;-69
2021/07/06 10:06:31;;;;;;;0.90;0.90;;;30.80;29.50;;;;;;10453751;28;20600;-68
2021/07/06 10:11:38;;;;;;;0.90;0.90;;;30.90;30.00;;;;;;10452966;28;20227;-68
2021/07/06 10:16:43;;;;;;;0.97;0.97;;;31.10;29.00;;;;;;10450995;28;20614;-68
2021/07/06 10:21:47;;;;;;;0.80;0.80;;;31.30;28.80;;;;;;10453485;28;20243;-68
2021/07/06 10:26:58;;;;;;;0.90;0.90;;;31.30;29.20;;;;;;10453366;28;20612;-68
2021/07/06 10:32:03;;;;;;;1.33;1.00;;;31.50;27.80;;;;;;10445944;28;20598;-68
2021/07/06 10:37:28;;;;;;;0.93;0.93;;;31.60;28.40;;;;;;10447151;28;20237;-69
2021/07/06 10:42:39;;;;;;;1.53;1.00;;;31.70;28.90;;;;;;10440428;28;20227;-68
2021/07/06 10:47:52;;;;;;;1.83;1.17;;;31.90;27.60;;;;;;10451520;28;20243;-68
2021/07/06 10:53:18;;;;;;;1.00;1.00;;;32.10;27.60;;;;;;10445488;28;20227;-68
2021/07/06 10:58:47;;;;;;;0.90;0.90;;;32.10;27.70;;;;;;10456401;28;20228;-68
2021/07/06 11:03:51;;;;;;;1.13;0.90;;;32.30;28.10;;;;;;10455333;28;21107;-68
2021/07/06 11:08:54;;;;;;;1.10;1.10;;;32.40;27.20;;;;;;10450070;28;20231;-68
2021/07/06 11:14:19;;;;;;;1.00;1.00;;;32.40;27.00;;;;;;10449457;28;20229;-68
2021/07/06 11:19:37;;;;;;;1.17;1.03;;;32.50;26.40;;;;;;10447287;28;20317;-68
2021/07/06 11:24:42;;;;;;;1.00;1.00;;;32.50;26.40;;;;;;10448719;28;20220;-68
2021/07/06 11:29:45;;;;;;;0.93;0.93;;;32.70;26.40;;;;;;10442962;28;20229;-68
2021/07/06 11:34:49;;;;;;;0.90;0.90;;;32.80;26.30;;;;;;10447280;28;20237;-68
2021/07/06 11:39:53;;;;;;;0.97;0.97;;;32.90;25.70;;;;;;10443886;28;20825;-68
2021/07/06 11:44:57;;;;;;;1.07;1.00;;;33.10;25.80;;;;;;10454791;28;20864;-68
2021/07/06 11:50:02;;;;;;;1.17;1.07;;;33.10;25.80;;;;;;10445445;28;20237;-68
2021/07/06 11:55:06;;;;;;;0.93;0.93;;;33.20;25.30;;;;;;10446789;28;20238;-68
2021/07/06 12:00:13;;;;;;;1.00;1.00;;;33.30;25.40;;;;;;10450684;28;20243;-68
2021/07/06 12:05:20;;;;;;;0.80;0.80;;;33.40;24.10;;;;;;10448509;28;20596;-68
2021/07/06 12:10:23;;;;;;;1.00;1.00;;;33.50;24.50;;;;;;10446846;28;20252;-68
2021/07/06 12:15:41;;;;;;;1.07;0.87;;;33.60;24.60;;;;;;10447642;28;20603;-68
2021/07/06 12:20:53;;;;;;;0.90;0.90;;;33.70;23.60;;;;;;10446228;28;20232;-68
2021/07/06 12:25:58;;;;;;;1.00;1.00;;;33.80;23.10;;;;;;10453548;28;20383;-68
2021/07/06 12:31:21;;;;;;;0.90;0.90;;;33.90;23.90;;;;;;10454222;28;20232;-68
2021/07/06 12:36:30;;;;;;;1.00;1.00;;;34.00;24.20;;;;;;10451532;28;20220;-68
2021/07/06 12:41:40;;;;;;;0.90;0.90;;;34.10;22.60;;;;;;10458889;28;20229;-68
2021/07/06 12:46:43;;;;;;;0.83;0.83;;;34.00;22.60;;;;;;10452381;28;20236;-68
2021/07/06 12:51:59;;;;;;;1.00;1.00;;;34.10;23.30;;;;;;10456254;28;20224;-68
2021/07/06 12:57:04;;;;;;;1.40;1.00;;;34.20;23.20;;;;;;10459996;28;20228;-68
2021/07/06 13:02:21;;;;;;;0.87;0.87;;;34.30;22.90;;;;;;10456811;28;20236;-68
2021/07/06 13:07:31;;;;;;;0.93;0.93;;;34.30;21.40;;;;;;10454856;28;20236;-68
2021/07/06 13:12:34;;;;;;;1.10;1.10;;;34.20;21.50;;;;;;10451666;28;20232;-68
2021/07/06 13:17:45;;;;;;;1.00;1.00;;;34.30;22.70;;;;;;10457477;28;20264;-68
2021/07/06 13:22:54;;;;;;;1.10;1.00;;;34.30;21.60;;;;;;10449118;28;20225;-68
2021/07/06 13:27:59;;;;;;;1.00;1.00;;;34.40;21.60;;;;;;10454428;28;20240;-68
2021/07/06 13:33:04;;;;;;;1.00;1.00;;;34.40;22.10;;;;;;10450379;28;20223;-69
2021/07/06 13:38:09;;;;;;;0.90;0.90;;;34.40;21.80;;;;;;10452473;28;20236;-68
2021/07/06 13:43:12;;;;;;;0.90;0.90;;;34.30;21.70;;;;;;10448999;28;20240;-68
2021/07/06 13:48:17;;;;;;;1.00;1.00;;;34.30;21.80;;;;;;10448643;28;20705;-68
2021/07/06 13:53:22;;;;;;;0.90;0.90;;;34.30;21.50;;;;;;10450874;28;20221;-68
2021/07/06 13:58:25;;;;;;;1.37;1.10;;;34.30;21.40;;;;;;10453305;28;20235;-68
2021/07/06 14:03:28;;;;;;;0.83;0.83;;;34.40;21.40;;;;;;10444444;28;20229;-68
2021/07/06 14:08:36;;;;;;;0.97;0.97;;;34.50;21.10;;;;;;10452292;28;20225;-68
2021/07/06 14:13:39;;;;;;;1.03;1.03;;;34.40;21.00;;;;;;10451746;28;20239;-68
2021/07/06 14:19:03;;;;;;;0.90;0.90;;;34.30;21.80;;;;;;10406284;28;20997;-70
2021/07/06 14:24:07;;;;;;;0.97;0.97;;;34.30;21.40;;;;;;10451829;28;20231;-68
2021/07/06 14:29:12;;;;;;;1.00;1.00;;;34.30;21.30;;;;;;10447966;28;20779;-68
2021/07/06 14:34:16;;;;;;;1.00;1.00;;;34.20;21.60;;;;;;10449000;28;20955;-68
2021/07/06 14:39:20;;;;;;;1.20;1.20;;;34.20;21.80;;;;;;10454742;28;20233;-68
2021/07/06 14:44:24;;;;;;;1.60;1.50;;;34.00;21.80;;;;;;10447716;28;20724;-68
2021/07/06 14:49:27;;;;;;;4.13;1.60;;;33.90;22.70;;;;;;10448765;28;20231;-68
2021/07/06 14:54:32;;;;;;;1.83;1.67;;;33.50;22.90;;;;;;10453298;28;20231;-68
2021/07/06 14:59:35;;;;;;;2.07;1.77;;;33.10;23.20;;;;;;10442368;28;20233;-68
2021/07/06 15:04:38;;;;;;;1.70;1.60;;;32.70;23.70;;;;;;10452816;28;20286;-68
2021/07/06 15:09:43;;;;;;;3.60;1.90;;;32.40;24.30;;;;;;10449114;28;20243;-68
2021/07/06 15:14:46;;;;;;;1.87;1.77;;;32.10;24.70;;;;;;10450008;28;20256;-69
2021/07/06 15:19:50;;;;;;;3.00;1.77;;;31.80;24.90;;;;;;10451535;28;20229;-68
2021/07/06 15:24:54;;;;;;;1.87;1.70;;;31.40;25.10;;;;;;10453431;28;20228;-68
2021/07/06 15:29:57;;;;;;;1.90;1.80;;;31.20;25.70;;;;;;10448488;28;20225;-68
2021/07/06 15:35:02;;;;;;;1.67;1.60;;;31.10;25.90;;;;;;10448224;28;20228;-68
2021/07/06 15:40:09;;;;;;;1.80;1.70;;;31.10;25.80;;;;;;10451431;28;20895;-68
2021/07/06 15:45:13;;;;;;;1.80;1.57;;;31.00;26.10;;;;;;10446001;28;20225;-68
2021/07/06 15:50:16;;;;;;;1.30;1.30;;;31.00;25.90;;;;;;10450861;28;20229;-68
2021/07/06 15:55:21;;;;;;;1.43;1.30;;;31.00;25.90;;;;;;10448902;28;20231;-68
2021/07/06 16:00:25;;;;;;;1.40;1.30;;;30.90;25.60;;;;;;10450780;28;20229;-68
2021/07/06 16:05:28;;;;;;;3.30;1.20;;;30.80;25.40;;;;;;10459568;28;20324;-68
2021/07/06 16:10:33;;;;;;;1.00;1.00;;;30.70;25.40;;;;;;10459450;28;20224;-68
2021/07/06 16:15:37;;;;;;;1.10;1.00;;;30.50;25.20;;;;;;10463898;28;20233;-68
2021/07/06 16:20:40;;;;;;;1.30;1.20;;;30.40;25.00;;;;;;10457695;28;20221;-68
2021/07/06 16:25:44;;;;;;;1.07;1.00;;;30.10;25.00;;;;;;10459738;28;20225;-68
2021/07/06 16:30:48;;;;;;;1.00;1.00;;;30.00;24.80;;;;;;10454707;28;20225;-68
2021/07/06 16:35:55;;;;;;;1.10;1.10;;;29.90;25.10;;;;;;10457591;28;20584;-68
2021/07/06 16:41:00;;;;;;;1.10;1.10;;;29.80;25.10;;;;;;10462998;28;20232;-68
2021/07/06 16:46:05;;;;;;;1.07;1.07;;;29.70;24.90;;;;;;10455655;28;20221;-68
2021/07/06 18:01:00;;;;;;;1.00;1.00;;;27.10;28.30;;;;;;10336888;28;20644;-69
2021/07/06 18:06:06;;;;;;;1.40;1.00;;;26.60;29.50;;;;;;10457107;28;20231;-69
2021/07/06 18:11:10;;;;;;;0.90;0.90;;;26.20;29.50;;;;;;10449828;28;20228;-68
2021/07/06 18:16:14;;;;;;;1.27;0.97;;;25.70;29.90;;;;;;10450016;28;20250;-68
2021/07/06 18:21:20;;;;;;;1.00;0.90;;;25.40;32.20;;;;;;10444660;28;20229;-68
2021/07/06 18:26:23;;;;;;;1.40;0.90;;;25.00;31.30;;;;;;10443831;28;20232;-68
2021/07/06 18:31:27;;;;;;;1.07;0.97;;;24.80;31.90;;;;;;10450480;28;20228;-68
2021/07/06 18:36:31;;;;;;;0.93;0.93;;;24.70;33.20;;;;;;10444362;28;20251;-68
2021/07/06 18:41:34;;;;;;;0.90;0.90;;;24.70;32.50;;;;;;10448784;28;20871;-68
2021/07/06 18:46:39;;;;;;;1.10;1.00;;;24.80;33.00;;;;;;10448889;28;20225;-68
2021/07/06 18:51:42;;;;;;;1.00;1.00;;;24.80;33.80;;;;;;10449023;28;20228;-68
2021/07/06 18:56:45;;;;;;;1.43;1.00;;;24.80;33.00;;;;;;10452775;28;20248;-68
2021/07/06 19:01:50;;;;;;;1.10;1.10;;;24.90;33.00;;;;;;10450595;28;20221;-68
2021/07/06 19:06:53;;;;;;;2.93;1.20;;;24.90;33.70;;;;;;10447347;28;20232;-68
2021/07/06 19:11:56;;;;;;;1.07;0.90;;;24.90;33.10;;;;;;10450992;28;20236;-68
2021/07/06 19:17:01;;;;;;;1.00;1.00;;;24.80;32.90;;;;;;10450764;28;20244;-68
2021/07/06 19:22:05;;;;;;;1.27;1.03;;;24.70;33.70;;;;;;10450582;28;20225;-68
2021/07/06 19:27:11;;;;;;;0.90;0.90;;;24.70;33.20;;;;;;10449445;28;20232;-68
2021/07/06 19:32:16;;;;;;;0.90;0.90;;;24.60;33.90;;;;;;10443201;28;20224;-68
2021/07/06 19:37:20;;;;;;;0.90;0.90;;;24.50;33.90;;;;;;10448253;28;20238;-68
2021/07/06 19:42:24;;;;;;;1.00;1.00;;;24.60;33.80;;;;;;10449254;28;20232;-68
2021/07/06 19:47:29;;;;;;;1.00;1.00;;;24.50;34.10;;;;;;10449485;28;20240;-68
2021/07/06 19:52:32;;;;;;;2.10;1.03;;;24.50;34.80;;;;;;10455795;28;20251;-68
2021/07/06 19:57:35;;;;;;;2.20;1.30;;;24.50;34.50;;;;;;10446226;28;20233;-68
2021/07/06 20:02:40;;;;;;;1.20;1.10;;;24.50;34.50;;;;;;10448108;28;20571;-68
2021/07/06 20:07:43;;;;;;;1.40;1.07;;;24.40;35.60;;;;;;10443759;28;20243;-68
2021/07/06 20:12:47;;;;;;;2.70;1.30;;;24.30;35.00;;;;;;10451967;28;20306;-68
2021/07/06 20:17:53;;;;;;;2.73;1.20;;;24.20;35.20;;;;;;10448144;28;20286;-69
2021/07/06 20:22:56;;;;;;;1.30;1.13;;;24.00;36.20;;;;;;10443304;28;20221;-68
2021/07/06 20:27:59;;;;;;;1.13;1.03;;;23.70;35.90;;;;;;10445616;28;20233;-69
2021/07/06 20:33:04;;;;;;;1.90;1.27;;;23.30;36.20;;;;;;10442714;28;20221;-70
2021/07/06 20:38:07;;;;;;;1.20;1.07;;;23.20;38.10;;;;;;10447367;28;20229;-69
2021/07/06 20:43:10;;;;;;;1.27;1.17;;;23.10;36.90;;;;;;10454536;28;20225;-69
2021/07/06 20:48:15;;;;;;;1.80;1.20;;;23.10;37.20;;;;;;10451148;28;20232;-69
2021/07/06 20:53:18;;;;;;;1.10;0.80;;;23.10;38.00;;;;;;10451211;28;20597;-69
2021/07/06 20:58:21;;;;;;;0.97;0.87;;;23.00;37.30;;;;;;10464564;28;20297;-68
2021/07/06 21:03:26;;;;;;;0.87;0.87;;;22.90;37.50;;;;;;10449212;28;20235;-69
2021/07/06 21:08:29;;;;;;;0.90;0.90;;;22.90;39.10;;;;;;10449602;28;20224;-69
2021/07/06 21:13:32;;;;;;;1.93;1.20;;;22.80;38.10;;;;;;10452826;28;20704;-69
2021/07/06 21:18:37;;;;;;;1.20;1.10;;;22.90;38.20;;;;;;10450330;28;20231;-68
2021/07/06 21:23:40;;;;;;;2.00;1.10;;;22.90;39.10;;;;;;10454936;28;20244;-69
2021/07/06 21:28:44;;;;;;;1.00;0.90;;;22.90;38.00;;;;;;10450297;28;20236;-69
2021/07/06 21:33:48;;;;;;;1.00;0.90;;;22.90;38.40;;;;;;10451319;28;20221;-69
2021/07/06 21:38:52;;;;;;;1.00;1.00;;;22.80;39.00;;;;;;10448641;28;20224;-69
2021/07/06 21:43:55;;;;;;;0.93;0.93;;;22.80;38.60;;;;;;10450519;28;20226;-69
2021/07/06 21:48:59;;;;;;;0.83;0.83;;;22.80;39.00;;;;;;10448580;28;20566;-68
2021/07/06 21:54:02;;;;;;;1.10;1.10;;;22.80;39.10;;;;;;10456558;28;20669;-69
2021/07/06 21:59:05;;;;;;;2.50;1.23;;;22.80;39.00;;;;;;10449833;28;20240;-69
2021/07/06 22:04:10;;;;;;;0.80;0.80;;;22.80;39.00;;;;;;10454050;28;20220;-69
2021/07/06 22:09:13;;;;;;;2.40;0.90;;;22.80;39.40;;;;;;10451514;28;20224;-68
2021/07/06 22:14:16;;;;;;;1.13;1.10;;;22.70;38.90;;;;;;10448418;28;20899;-69
2021/07/06 22:19:21;;;;;;;1.03;0.97;;;22.70;38.90;;;;;;10453600;28;20240;-69
2021/07/06 22:24:24;;;;;;;0.93;0.90;;;22.70;40.00;;;;;;10448556;28;20229;-69
2021/07/06 22:29:27;;;;;;;1.20;1.10;;;22.80;39.00;;;;;;10457247;28;20221;-69
2021/07/06 22:34:32;;;;;;;0.97;0.97;;;22.80;39.00;;;;;;10449019;28;20225;-69
2021/07/06 22:39:35;;;;;;;1.03;1.03;;;22.80;40.00;;;;;;10453684;28;20233;-68
2021/07/06 22:44:38;;;;;;;0.90;0.90;;;22.70;38.90;;;;;;10451537;28;20605;-68
2021/07/06 22:49:42;;;;;;;1.00;1.00;;;22.70;39.40;;;;;;10451921;28;20251;-68
2021/07/06 22:54:46;;;;;;;1.00;1.00;;;22.60;40.50;;;;;;10440901;28;20740;-69
2021/07/06 22:59:49;;;;;;;1.10;1.00;;;22.60;40.00;;;;;;10453599;28;20217;-68
2021/07/06 23:04:53;;;;;;;1.60;1.20;;;22.60;39.90;;;;;;10447891;28;20317;-68
2021/07/06 23:09:56;;;;;;;1.27;1.10;;;22.50;40.90;;;;;;10453736;28;20224;-68
2021/07/06 23:14:59;;;;;;;1.77;1.37;;;22.40;40.30;;;;;;10456081;28;20601;-68
2021/07/06 23:20:05;;;;;;;2.30;1.30;;;22.40;40.50;;;;;;10449952;28;20225;-69
2021/07/06 23:25:10;;;;;;;1.93;1.27;;;22.40;41.70;;;;;;10453510;28;20224;-68
2021/07/06 23:30:14;;;;;;;2.17;1.27;;;22.40;41.30;;;;;;10448029;28;20245;-68
2021/07/06 23:35:18;;;;;;;1.27;1.20;;;22.40;41.00;;;;;;10449611;28;20803;-68
2021/07/06 23:40:21;;;;;;;2.07;1.40;;;22.30;41.80;;;;;;10448369;28;20242;-68
2021/07/06 23:45:25;;;;;;;1.77;1.37;;;22.30;41.20;;;;;;10455545;28;20236;-74
2021/07/06 23:50:29;;;;;;;1.40;1.30;;;22.20;41.60;;;;;;10446538;28;20233;-74
2021/07/06 23:55:33;;;;;;;1.43;1.33;;;22.20;42.60;;;;;;10445301;28;20218;-74
